sensor_id;sensor_type;location;lat;lon;timestamp;P1;durP1;ratioP1;P2;durP2;ratioP2
6424;SDS011;12193;42.642;23.384;2023-05-14T03:08:24;4.53;;;3.27;;
6424;SDS011;12193;42.642;23.384;2023-05-14T03:10:54;11.67;;;3.20;;
6424;SDS011;12193;42.642;23.384;2023-05-14T03:13:23;4.93;;;2.97;;
6424;SDS011;12193;42.642;23.384;2023-05-14T03:15:52;8.03;;;3.03;;
6424;SDS011;12193;42.642;23.384;2023-05-14T03:18:22;6.33;;;3.40;;
6424;SDS011;12193;42.642;23.384;2023-05-14T03:20:53;4.27;;;3.00;;
6424;SDS011;12193;42.642;23.384;2023-05-14T03:23:24;3.20;;;2.70;;
6424;SDS011;12193;42.642;23.384;2023-05-14T03:25:54;5.63;;;3.20;;
6424;SDS011;12193;42.642;23.384;2023-05-14T03:28:23;4.67;;;3.30;;
6424;SDS011;12193;42.642;23.384;2023-05-14T03:30:52;3.27;;;2.37;;
6424;SDS011;12193;42.642;23.384;2023-05-14T03:33:22;4.20;;;3.20;;
6424;SDS011;12193;42.642;23.384;2023-05-14T03:35:51;4.97;;;3.23;;
6424;SDS011;12193;42.642;23.384;2023-05-14T03:38:20;4.67;;;3.00;;
6424;SDS011;12193;42.642;23.384;2023-05-14T03:40:52;6.40;;;3.53;;
6424;SDS011;12193;42.642;23.384;2023-05-14T03:43:22;4.93;;;3.07;;
6424;SDS011;12193;42.642;23.384;2023-05-14T03:45:52;4.43;;;3.07;;
6424;SDS011;12193;42.642;23.384;2023-05-14T03:48:21;7.40;;;3.20;;
6424;SDS011;12193;42.642;23.384;2023-05-14T03:50:50;4.70;;;3.40;;
6424;SDS011;12193;42.642;23.384;2023-05-14T03:53:19;6.57;;;3.40;;
6424;SDS011;12193;42.642;23.384;2023-05-14T03:55:51;4.00;;;3.53;;
6424;SDS011;12193;42.642;23.384;2023-05-14T03:58:21;6.30;;;3.40;;
6424;SDS011;12193;42.642;23.384;2023-05-14T04:00:50;4.87;;;3.40;;
6424;SDS011;12193;42.642;23.384;2023-05-14T04:03:19;6.83;;;3.30;;
6424;SDS011;12193;42.642;23.384;2023-05-14T04:05:49;4.27;;;3.17;;
6424;SDS011;12193;42.642;23.384;2023-05-14T04:08:19;4.53;;;3.40;;
6424;SDS011;12193;42.642;23.384;2023-05-14T04:10:48;3.87;;;2.97;;
6424;SDS011;12193;42.642;23.384;2023-05-14T04:13:20;5.80;;;3.43;;
6424;SDS011;12193;42.642;23.384;2023-05-14T04:15:49;4.70;;;3.47;;
6424;SDS011;12193;42.642;23.384;2023-05-14T04:18:19;5.63;;;3.27;;
6424;SDS011;12193;42.642;23.384;2023-05-14T04:20:48;5.40;;;3.23;;
6424;SDS011;12193;42.642;23.384;2023-05-14T04:23:17;4.17;;;3.33;;
6424;SDS011;12193;42.642;23.384;2023-05-14T04:25:46;4.17;;;3.00;;
6424;SDS011;12193;42.642;23.384;2023-05-14T04:28:18;7.80;;;3.40;;
6424;SDS011;12193;42.642;23.384;2023-05-14T04:30:48;5.83;;;3.53;;
6424;SDS011;12193;42.642;23.384;2023-05-14T04:33:17;4.73;;;3.13;;
6424;SDS011;12193;42.642;23.384;2023-05-14T04:35:46;4.00;;;3.47;;
6424;SDS011;12193;42.642;23.384;2023-05-14T04:38:16;4.97;;;3.43;;
6424;SDS011;12193;42.642;23.384;2023-05-14T04:40:46;4.87;;;3.40;;
6424;SDS011;12193;42.642;23.384;2023-05-14T04:43:18;6.13;;;3.63;;
6424;SDS011;12193;42.642;23.384;2023-05-14T04:45:47;4.43;;;3.43;;
6424;SDS011;12193;42.642;23.384;2023-05-14T04:48:17;7.43;;;2.90;;
6424;SDS011;12193;42.642;23.384;2023-05-14T04:50:46;6.73;;;3.30;;
6424;SDS011;12193;42.642;23.384;2023-05-14T04:53:15;4.23;;;3.00;;
6424;SDS011;12193;42.642;23.384;2023-05-14T04:55:45;3.40;;;2.40;;
6424;SDS011;12193;42.642;23.384;2023-05-14T04:58:14;5.60;;;3.60;;
6424;SDS011;12193;42.642;23.384;2023-05-14T05:00:46;5.33;;;3.60;;
6424;SDS011;12193;42.642;23.384;2023-05-14T05:03:15;5.47;;;3.10;;
6424;SDS011;12193;42.642;23.384;2023-05-14T05:05:44;5.53;;;3.47;;
6424;SDS011;12193;42.642;23.384;2023-05-14T05:08:14;7.13;;;3.93;;
6424;SDS011;12193;42.642;23.384;2023-05-14T05:10:43;5.07;;;3.60;;
6424;SDS011;12193;42.642;23.384;2023-05-14T05:13:12;4.70;;;3.03;;
6424;SDS011;12193;42.642;23.384;2023-05-14T05:15:42;6.97;;;3.90;;
6424;SDS011;12193;42.642;23.384;2023-05-14T05:18:14;5.13;;;3.60;;
6424;SDS011;12193;42.642;23.384;2023-05-14T05:20:43;4.77;;;3.40;;
6424;SDS011;12193;42.642;23.384;2023-05-14T05:23:12;4.20;;;3.03;;
6424;SDS011;12193;42.642;23.384;2023-05-14T05:25:42;6.30;;;3.73;;
6424;SDS011;12193;42.642;23.384;2023-05-14T05:28:11;5.80;;;3.20;;
6424;SDS011;12193;42.642;23.384;2023-05-14T05:30:40;6.53;;;3.70;;
6424;SDS011;12193;42.642;23.384;2023-05-14T05:33:10;5.73;;;3.77;;
6424;SDS011;12193;42.642;23.384;2023-05-14T05:35:42;6.50;;;4.23;;
6424;SDS011;12193;42.642;23.384;2023-05-14T05:38:12;6.57;;;3.83;;
6424;SDS011;12193;42.642;23.384;2023-05-14T05:40:43;5.67;;;3.80;;
6424;SDS011;12193;42.642;23.384;2023-05-14T05:43:13;6.03;;;4.20;;
6424;SDS011;12193;42.642;23.384;2023-05-14T05:45:42;5.80;;;4.03;;
6424;SDS011;12193;42.642;23.384;2023-05-14T05:48:12;7.03;;;4.23;;
6424;SDS011;12193;42.642;23.384;2023-05-14T05:50:45;4.33;;;3.63;;
6424;SDS011;12193;42.642;23.384;2023-05-14T05:53:16;6.67;;;4.27;;
6424;SDS011;12193;42.642;23.384;2023-05-14T05:55:45;6.20;;;4.20;;
6424;SDS011;12193;42.642;23.384;2023-05-14T05:58:16;7.53;;;4.00;;
6424;SDS011;12193;42.642;23.384;2023-05-14T06:00:45;6.03;;;4.27;;
6424;SDS011;12193;42.642;23.384;2023-05-14T06:03:15;9.03;;;4.60;;
6424;SDS011;12193;42.642;23.384;2023-05-14T06:05:46;5.43;;;3.67;;
6424;SDS011;12193;42.642;23.384;2023-05-14T06:08:17;7.60;;;4.27;;
6424;SDS011;12193;42.642;23.384;2023-05-14T06:10:46;4.40;;;3.63;;
6424;SDS011;12193;42.642;23.384;2023-05-14T06:13:15;6.60;;;4.57;;
6424;SDS011;12193;42.642;23.384;2023-05-14T06:15:45;7.03;;;4.70;;
6424;SDS011;12193;42.642;23.384;2023-05-14T06:18:14;6.50;;;4.60;;
6424;SDS011;12193;42.642;23.384;2023-05-14T06:20:46;6.83;;;4.70;;
6424;SDS011;12193;42.642;23.384;2023-05-14T06:23:15;8.73;;;4.73;;
6424;SDS011;12193;42.642;23.384;2023-05-14T06:25:44;7.77;;;4.97;;
6424;SDS011;12193;42.642;23.384;2023-05-14T06:28:14;10.93;;;5.90;;
6424;SDS011;12193;42.642;23.384;2023-05-14T06:30:43;7.17;;;5.27;;
6424;SDS011;12193;42.642;23.384;2023-05-14T06:33:12;8.00;;;5.40;;
6424;SDS011;12193;42.642;23.384;2023-05-14T06:35:41;8.07;;;5.13;;
6424;SDS011;12193;42.642;23.384;2023-05-14T06:38:13;8.00;;;5.50;;
6424;SDS011;12193;42.642;23.384;2023-05-14T06:40:42;7.80;;;5.17;;
6424;SDS011;12193;42.642;23.384;2023-05-14T06:43:11;7.03;;;5.47;;
6424;SDS011;12193;42.642;23.384;2023-05-14T06:45:41;11.37;;;5.80;;
6424;SDS011;12193;42.642;23.384;2023-05-14T06:48:10;8.57;;;5.57;;
6424;SDS011;12193;42.642;23.384;2023-05-14T06:50:39;6.93;;;5.50;;
6424;SDS011;12193;42.642;23.384;2023-05-14T06:53:09;8.33;;;5.83;;
6424;SDS011;12193;42.642;23.384;2023-05-14T06:55:40;12.20;;;7.53;;
6424;SDS011;12193;42.642;23.384;2023-05-14T06:58:10;10.70;;;6.37;;
6424;SDS011;12193;42.642;23.384;2023-05-14T07:00:39;8.70;;;6.10;;
6424;SDS011;12193;42.642;23.384;2023-05-14T07:03:08;8.40;;;5.67;;
6424;SDS011;12193;42.642;23.384;2023-05-14T07:05:37;8.43;;;5.57;;
6424;SDS011;12193;42.642;23.384;2023-05-14T07:08:07;10.13;;;6.80;;
6424;SDS011;12193;42.642;23.384;2023-05-14T07:10:36;13.90;;;6.17;;
6424;SDS011;12193;42.642;23.384;2023-05-14T07:13:08;9.83;;;6.83;;
6424;SDS011;12193;42.642;23.384;2023-05-14T07:15:37;13.13;;;7.57;;
6424;SDS011;12193;42.642;23.384;2023-05-14T07:18:06;10.40;;;7.73;;
6424;SDS011;12193;42.642;23.384;2023-05-14T07:20:36;12.17;;;7.13;;
6424;SDS011;12193;42.642;23.384;2023-05-14T07:23:05;10.13;;;6.83;;
6424;SDS011;12193;42.642;23.384;2023-05-14T07:25:34;12.27;;;6.87;;
6424;SDS011;12193;42.642;23.384;2023-05-14T07:28:03;10.67;;;6.97;;
6424;SDS011;12193;42.642;23.384;2023-05-14T07:30:35;10.70;;;6.47;;
6424;SDS011;12193;42.642;23.384;2023-05-14T07:33:05;11.30;;;5.90;;
6424;SDS011;12193;42.642;23.384;2023-05-14T07:35:34;10.63;;;5.77;;
6424;SDS011;12193;42.642;23.384;2023-05-14T07:38:03;8.70;;;5.97;;
6424;SDS011;12193;42.642;23.384;2023-05-14T07:40:33;9.30;;;5.93;;
6424;SDS011;12193;42.642;23.384;2023-05-14T07:43:02;11.20;;;5.70;;
6424;SDS011;12193;42.642;23.384;2023-05-14T07:45:31;8.17;;;5.23;;
6424;SDS011;12193;42.642;23.384;2023-05-14T07:48:03;7.53;;;5.33;;
6424;SDS011;12193;42.642;23.384;2023-05-14T07:50:33;10.33;;;6.43;;
6424;SDS011;12193;42.642;23.384;2023-05-14T07:53:02;7.80;;;5.43;;
6424;SDS011;12193;42.642;23.384;2023-05-14T07:55:31;8.97;;;6.37;;
6424;SDS011;12193;42.642;23.384;2023-05-14T07:58:00;11.33;;;6.97;;
6424;SDS011;12193;42.642;23.384;2023-05-14T08:00:30;16.67;;;11.63;;
6424;SDS011;12193;42.642;23.384;2023-05-14T08:02:59;19.73;;;12.40;;
6424;SDS011;12193;42.642;23.384;2023-05-14T08:05:31;24.33;;;14.70;;
6424;SDS011;12193;42.642;23.384;2023-05-14T08:08:00;16.70;;;10.60;;
6424;SDS011;12193;42.642;23.384;2023-05-14T08:10:29;18.67;;;10.43;;
6424;SDS011;12193;42.642;23.384;2023-05-14T08:12:59;14.43;;;7.30;;
6424;SDS011;12193;42.642;23.384;2023-05-14T08:15:28;11.13;;;6.60;;
6424;SDS011;12193;42.642;23.384;2023-05-14T08:17:57;10.47;;;7.17;;
6424;SDS011;12193;42.642;23.384;2023-05-14T08:20:31;10.20;;;6.67;;
6424;SDS011;12193;42.642;23.384;2023-05-14T08:23:00;11.57;;;7.00;;
6424;SDS011;12193;42.642;23.384;2023-05-14T08:25:30;9.13;;;6.70;;
6424;SDS011;12193;42.642;23.384;2023-05-14T08:27:59;12.27;;;7.13;;
6424;SDS011;12193;42.642;23.384;2023-05-14T08:30:28;10.60;;;6.97;;
6424;SDS011;12193;42.642;23.384;2023-05-14T08:32:57;11.20;;;6.70;;
6424;SDS011;12193;42.642;23.384;2023-05-14T08:35:27;9.80;;;6.33;;
6424;SDS011;12193;42.642;23.384;2023-05-14T08:37:59;9.83;;;6.90;;
6424;SDS011;12193;42.642;23.384;2023-05-14T08:40:28;10.87;;;6.70;;
6424;SDS011;12193;42.642;23.384;2023-05-14T08:42:58;13.60;;;7.80;;
6424;SDS011;12193;42.642;23.384;2023-05-14T08:45:28;12.40;;;6.80;;
6424;SDS011;12193;42.642;23.384;2023-05-14T08:47:59;12.03;;;7.27;;
6424;SDS011;12193;42.642;23.384;2023-05-14T08:50:33;14.63;;;6.77;;
6424;SDS011;12193;42.642;23.384;2023-05-14T08:53:06;11.87;;;7.27;;
6424;SDS011;12193;42.642;23.384;2023-05-14T08:55:35;10.97;;;6.90;;
6424;SDS011;12193;42.642;23.384;2023-05-14T08:58:05;12.73;;;7.43;;
6424;SDS011;12193;42.642;23.384;2023-05-14T09:00:34;11.23;;;7.30;;
6424;SDS011;12193;42.642;23.384;2023-05-14T09:03:04;10.63;;;7.27;;
6424;SDS011;12193;42.642;23.384;2023-05-14T09:05:34;11.67;;;7.63;;
6424;SDS011;12193;42.642;23.384;2023-05-14T09:08:06;12.80;;;7.33;;
6424;SDS011;12193;42.642;23.384;2023-05-14T09:10:36;13.50;;;8.00;;
6424;SDS011;12193;42.642;23.384;2023-05-14T09:13:05;13.10;;;7.53;;
6424;SDS011;12193;42.642;23.384;2023-05-14T09:15:35;9.70;;;6.80;;
6424;SDS011;12193;42.642;23.384;2023-05-14T09:18:06;10.10;;;7.60;;
6424;SDS011;12193;42.642;23.384;2023-05-14T09:20:35;9.93;;;6.97;;
6424;SDS011;12193;42.642;23.384;2023-05-14T09:23:08;12.03;;;7.83;;
6424;SDS011;12193;42.642;23.384;2023-05-14T09:25:37;11.67;;;7.53;;
6424;SDS011;12193;42.642;23.384;2023-05-14T09:28:07;15.83;;;8.00;;
6424;SDS011;12193;42.642;23.384;2023-05-14T09:30:37;11.37;;;7.87;;
6424;SDS011;12193;42.642;23.384;2023-05-14T09:33:06;15.13;;;8.30;;
6424;SDS011;12193;42.642;23.384;2023-05-14T09:35:36;11.30;;;7.57;;
6424;SDS011;12193;42.642;23.384;2023-05-14T09:38:10;11.20;;;7.40;;
6424;SDS011;12193;42.642;23.384;2023-05-14T09:40:40;10.53;;;7.40;;
6424;SDS011;12193;42.642;23.384;2023-05-14T09:43:09;11.23;;;8.07;;
6424;SDS011;12193;42.642;23.384;2023-05-14T09:45:39;11.67;;;7.53;;
6424;SDS011;12193;42.642;23.384;2023-05-14T09:48:08;10.53;;;7.20;;
6424;SDS011;12193;42.642;23.384;2023-05-14T09:50:40;10.73;;;7.20;;
6424;SDS011;12193;42.642;23.384;2023-05-14T09:53:13;14.57;;;8.50;;
6424;SDS011;12193;42.642;23.384;2023-05-14T09:55:42;10.60;;;7.30;;
6424;SDS011;12193;42.642;23.384;2023-05-14T09:58:12;9.90;;;7.40;;
6424;SDS011;12193;42.642;23.384;2023-05-14T10:00:42;14.43;;;8.70;;
6424;SDS011;12193;42.642;23.384;2023-05-14T10:03:13;8.33;;;5.73;;
6424;SDS011;12193;42.642;23.384;2023-05-14T10:05:42;9.73;;;6.43;;
6424;SDS011;12193;42.642;23.384;2023-05-14T10:08:18;10.57;;;6.40;;
6424;SDS011;12193;42.642;23.384;2023-05-14T10:10:53;9.63;;;7.23;;
6424;SDS011;12193;42.642;23.384;2023-05-14T10:13:25;11.10;;;7.17;;
6424;SDS011;12193;42.642;23.384;2023-05-14T10:16:00;10.70;;;7.73;;
6424;SDS011;12193;42.642;23.384;2023-05-14T10:18:38;12.47;;;7.40;;
6424;SDS011;12193;42.642;23.384;2023-05-14T10:21:10;10.00;;;7.27;;
6424;SDS011;12193;42.642;23.384;2023-05-14T10:23:45;9.90;;;7.30;;
6424;SDS011;12193;42.642;23.384;2023-05-14T10:26:16;9.40;;;7.13;;
6424;SDS011;12193;42.642;23.384;2023-05-14T10:28:45;11.63;;;7.93;;
6424;SDS011;12193;42.642;23.384;2023-05-14T10:31:15;11.23;;;8.00;;
6424;SDS011;12193;42.642;23.384;2023-05-14T10:33:47;14.00;;;7.80;;
6424;SDS011;12193;42.642;23.384;2023-05-14T10:36:19;12.37;;;7.97;;
6424;SDS011;12193;42.642;23.384;2023-05-14T10:38:56;10.63;;;6.87;;
6424;SDS011;12193;42.642;23.384;2023-05-14T10:41:25;10.00;;;6.90;;
6424;SDS011;12193;42.642;23.384;2023-05-14T10:43:55;11.37;;;6.33;;
6424;SDS011;12193;42.642;23.384;2023-05-14T10:46:25;7.87;;;5.57;;
6424;SDS011;12193;42.642;23.384;2023-05-14T10:48:55;7.53;;;5.67;;
6424;SDS011;12193;42.642;23.384;2023-05-14T10:51:24;8.67;;;6.37;;
6424;SDS011;12193;42.642;23.384;2023-05-14T10:53:57;6.87;;;5.60;;
6424;SDS011;12193;42.642;23.384;2023-05-14T10:56:28;7.57;;;5.27;;
6424;SDS011;12193;42.642;23.384;2023-05-14T10:58:58;7.90;;;5.87;;
6424;SDS011;12193;42.642;23.384;2023-05-14T11:01:28;8.03;;;5.47;;
6424;SDS011;12193;42.642;23.384;2023-05-14T11:03:57;8.60;;;5.30;;
6424;SDS011;12193;42.642;23.384;2023-05-14T11:06:26;7.43;;;5.40;;
6424;SDS011;12193;42.642;23.384;2023-05-14T11:08:59;8.23;;;5.20;;
6424;SDS011;12193;42.642;23.384;2023-05-14T11:11:28;7.03;;;4.90;;
6424;SDS011;12193;42.642;23.384;2023-05-14T11:13:58;11.63;;;7.40;;
6424;SDS011;12193;42.642;23.384;2023-05-14T11:16:28;13.77;;;7.70;;
6424;SDS011;12193;42.642;23.384;2023-05-14T11:19:02;13.80;;;7.77;;
6424;SDS011;12193;42.642;23.384;2023-05-14T11:21:32;11.30;;;7.37;;
6424;SDS011;12193;42.642;23.384;2023-05-14T11:24:04;12.40;;;7.70;;
6424;SDS011;12193;42.642;23.384;2023-05-14T11:26:34;11.97;;;7.70;;
6424;SDS011;12193;42.642;23.384;2023-05-14T11:29:03;13.70;;;7.97;;
6424;SDS011;12193;42.642;23.384;2023-05-14T11:31:33;11.93;;;7.73;;
6424;SDS011;12193;42.642;23.384;2023-05-14T11:34:03;10.97;;;7.80;;
6424;SDS011;12193;42.642;23.384;2023-05-14T11:36:35;9.70;;;7.37;;
6424;SDS011;12193;42.642;23.384;2023-05-14T11:39:07;12.23;;;8.43;;
6424;SDS011;12193;42.642;23.384;2023-05-14T11:41:42;11.73;;;8.50;;
6424;SDS011;12193;42.642;23.384;2023-05-14T11:44:11;12.27;;;8.67;;
6424;SDS011;12193;42.642;23.384;2023-05-14T11:46:41;13.67;;;8.07;;
6424;SDS011;12193;42.642;23.384;2023-05-14T11:49:21;12.90;;;8.17;;
6424;SDS011;12193;42.642;23.384;2023-05-14T11:51:55;9.57;;;7.57;;
6424;SDS011;12193;42.642;23.384;2023-05-14T11:54:28;12.43;;;8.73;;
6424;SDS011;12193;42.642;23.384;2023-05-14T11:56:59;15.93;;;8.27;;
6424;SDS011;12193;42.642;23.384;2023-05-14T11:59:30;9.80;;;6.40;;
6424;SDS011;12193;42.642;23.384;2023-05-14T12:02:00;10.60;;;7.70;;
6424;SDS011;12193;42.642;23.384;2023-05-14T12:04:30;12.03;;;7.70;;
6424;SDS011;12193;42.642;23.384;2023-05-14T12:07:03;9.57;;;7.20;;
6424;SDS011;12193;42.642;23.384;2023-05-14T12:09:39;10.97;;;7.00;;
6424;SDS011;12193;42.642;23.384;2023-05-14T12:12:14;10.80;;;7.80;;
6424;SDS011;12193;42.642;23.384;2023-05-14T12:14:46;10.83;;;7.17;;
6424;SDS011;12193;42.642;23.384;2023-05-14T12:17:17;9.37;;;6.73;;
6424;SDS011;12193;42.642;23.384;2023-05-14T12:19:48;8.57;;;6.63;;
6424;SDS011;12193;42.642;23.384;2023-05-14T12:22:19;10.03;;;6.67;;
6424;SDS011;12193;42.642;23.384;2023-05-14T12:24:55;9.30;;;6.17;;
6424;SDS011;12193;42.642;23.384;2023-05-14T12:27:26;8.77;;;6.57;;
6424;SDS011;12193;42.642;23.384;2023-05-14T12:30:00;9.80;;;6.90;;
6424;SDS011;12193;42.642;23.384;2023-05-14T12:32:30;8.70;;;6.67;;
6424;SDS011;12193;42.642;23.384;2023-05-14T12:34:59;10.90;;;6.77;;
6424;SDS011;12193;42.642;23.384;2023-05-14T12:37:28;9.60;;;6.77;;
6424;SDS011;12193;42.642;23.384;2023-05-14T12:40:01;10.47;;;6.53;;
6424;SDS011;12193;42.642;23.384;2023-05-14T12:42:33;9.63;;;6.73;;
6424;SDS011;12193;42.642;23.384;2023-05-14T12:45:03;7.83;;;5.60;;
6424;SDS011;12193;42.642;23.384;2023-05-14T12:47:33;13.63;;;8.70;;
6424;SDS011;12193;42.642;23.384;2023-05-14T12:50:04;11.80;;;8.47;;
6424;SDS011;12193;42.642;23.384;2023-05-14T12:52:34;10.83;;;7.70;;
6424;SDS011;12193;42.642;23.384;2023-05-14T12:55:06;9.77;;;7.00;;
6424;SDS011;12193;42.642;23.384;2023-05-14T12:57:36;9.20;;;7.33;;
6424;SDS011;12193;42.642;23.384;2023-05-14T13:00:06;9.87;;;7.27;;
6424;SDS011;12193;42.642;23.384;2023-05-14T13:02:37;10.43;;;8.40;;
6424;SDS011;12193;42.642;23.384;2023-05-14T13:05:07;11.47;;;7.77;;
6424;SDS011;12193;42.642;23.384;2023-05-14T13:07:36;11.00;;;7.30;;
6424;SDS011;12193;42.642;23.384;2023-05-14T13:10:09;9.03;;;6.80;;
6424;SDS011;12193;42.642;23.384;2023-05-14T13:12:38;13.40;;;8.03;;
6424;SDS011;12193;42.642;23.384;2023-05-14T13:15:08;11.17;;;7.83;;
6424;SDS011;12193;42.642;23.384;2023-05-14T13:17:38;12.63;;;7.77;;
6424;SDS011;12193;42.642;23.384;2023-05-14T13:20:08;10.73;;;7.53;;
6424;SDS011;12193;42.642;23.384;2023-05-14T13:22:38;13.30;;;7.90;;
6424;SDS011;12193;42.642;23.384;2023-05-14T13:25:10;11.43;;;7.50;;
6424;SDS011;12193;42.642;23.384;2023-05-14T13:27:39;11.10;;;6.03;;
6424;SDS011;12193;42.642;23.384;2023-05-14T13:30:09;12.17;;;8.63;;
6424;SDS011;12193;42.642;23.384;2023-05-14T13:32:39;12.60;;;7.40;;
6424;SDS011;12193;42.642;23.384;2023-05-14T13:35:08;11.03;;;6.67;;
6424;SDS011;12193;42.642;23.384;2023-05-14T13:37:37;14.43;;;7.90;;
6424;SDS011;12193;42.642;23.384;2023-05-14T13:40:10;12.67;;;7.90;;
6424;SDS011;12193;42.642;23.384;2023-05-14T13:42:40;10.23;;;6.43;;
6424;SDS011;12193;42.642;23.384;2023-05-14T13:45:10;12.90;;;8.90;;
6424;SDS011;12193;42.642;23.384;2023-05-14T13:47:39;11.67;;;6.77;;
6424;SDS011;12193;42.642;23.384;2023-05-14T13:50:09;12.43;;;8.00;;
6424;SDS011;12193;42.642;23.384;2023-05-14T13:52:39;14.00;;;9.20;;
6424;SDS011;12193;42.642;23.384;2023-05-14T13:55:11;12.70;;;8.60;;
6424;SDS011;12193;42.642;23.384;2023-05-14T13:57:42;12.10;;;8.53;;
6424;SDS011;12193;42.642;23.384;2023-05-14T14:00:12;14.47;;;9.30;;
6424;SDS011;12193;42.642;23.384;2023-05-14T14:02:42;13.83;;;9.17;;
6424;SDS011;12193;42.642;23.384;2023-05-14T14:05:11;14.03;;;7.70;;
6424;SDS011;12193;42.642;23.384;2023-05-14T14:07:40;13.90;;;9.23;;
6424;SDS011;12193;42.642;23.384;2023-05-14T14:10:12;13.00;;;8.70;;
6424;SDS011;12193;42.642;23.384;2023-05-14T14:12:42;13.20;;;9.63;;
6424;SDS011;12193;42.642;23.384;2023-05-14T14:15:11;13.77;;;9.63;;
6424;SDS011;12193;42.642;23.384;2023-05-14T14:17:40;14.37;;;9.27;;
6424;SDS011;12193;42.642;23.384;2023-05-14T14:20:10;15.17;;;9.80;;
6424;SDS011;12193;42.642;23.384;2023-05-14T14:22:40;15.03;;;9.73;;
6424;SDS011;12193;42.642;23.384;2023-05-14T14:25:13;15.10;;;10.00;;
6424;SDS011;12193;42.642;23.384;2023-05-14T14:27:43;15.77;;;10.50;;
6424;SDS011;12193;42.642;23.384;2023-05-14T14:30:12;16.90;;;10.23;;
6424;SDS011;12193;42.642;23.384;2023-05-14T14:32:44;16.13;;;10.70;;
6424;SDS011;12193;42.642;23.384;2023-05-14T14:35:14;18.07;;;11.00;;
6424;SDS011;12193;42.642;23.384;2023-05-14T14:37:44;15.10;;;10.43;;
6424;SDS011;12193;42.642;23.384;2023-05-14T14:40:21;13.97;;;10.20;;
6424;SDS011;12193;42.642;23.384;2023-05-14T14:42:51;13.10;;;8.77;;
6424;SDS011;12193;42.642;23.384;2023-05-14T14:45:20;12.67;;;9.00;;
6424;SDS011;12193;42.642;23.384;2023-05-14T14:47:50;12.00;;;9.13;;
6424;SDS011;12193;42.642;23.384;2023-05-14T14:50:19;14.23;;;9.60;;
6424;SDS011;12193;42.642;23.384;2023-05-14T14:52:48;14.57;;;9.07;;
6424;SDS011;12193;42.642;23.384;2023-05-14T14:55:17;16.60;;;9.70;;
6424;SDS011;12193;42.642;23.384;2023-05-14T14:57:50;15.13;;;9.80;;
6424;SDS011;12193;42.642;23.384;2023-05-14T15:00:19;15.77;;;10.60;;
6424;SDS011;12193;42.642;23.384;2023-05-14T15:02:48;17.63;;;11.03;;
6424;SDS011;12193;42.642;23.384;2023-05-14T15:05:17;17.83;;;10.33;;
6424;SDS011;12193;42.642;23.384;2023-05-14T15:07:46;16.53;;;11.13;;
6424;SDS011;12193;42.642;23.384;2023-05-14T15:10:15;15.67;;;11.37;;
6424;SDS011;12193;42.642;23.384;2023-05-14T15:12:47;15.37;;;10.73;;
6424;SDS011;12193;42.642;23.384;2023-05-14T15:15:17;17.50;;;11.70;;
6424;SDS011;12193;42.642;23.384;2023-05-14T15:17:46;16.13;;;10.90;;
6424;SDS011;12193;42.642;23.384;2023-05-14T15:20:15;15.53;;;10.67;;
6424;SDS011;12193;42.642;23.384;2023-05-14T15:22:45;18.77;;;11.93;;
6424;SDS011;12193;42.642;23.384;2023-05-14T15:25:17;16.43;;;10.80;;
6424;SDS011;12193;42.642;23.384;2023-05-14T15:27:49;17.23;;;10.37;;
6424;SDS011;12193;42.642;23.384;2023-05-14T15:30:19;14.97;;;10.27;;
6424;SDS011;12193;42.642;23.384;2023-05-14T15:32:48;14.97;;;9.63;;
6424;SDS011;12193;42.642;23.384;2023-05-14T15:35:18;14.37;;;9.57;;
6424;SDS011;12193;42.642;23.384;2023-05-14T15:37:47;12.53;;;9.03;;
6424;SDS011;12193;42.642;23.384;2023-05-14T15:40:17;11.93;;;8.40;;
6424;SDS011;12193;42.642;23.384;2023-05-14T15:42:49;13.73;;;8.93;;
6424;SDS011;12193;42.642;23.384;2023-05-14T15:45:19;8.70;;;6.80;;
6424;SDS011;12193;42.642;23.384;2023-05-14T15:47:48;13.97;;;8.57;;
6424;SDS011;12193;42.642;23.384;2023-05-14T15:50:18;11.13;;;8.07;;
6424;SDS011;12193;42.642;23.384;2023-05-14T15:52:47;9.73;;;7.33;;
6424;SDS011;12193;42.642;23.384;2023-05-14T15:55:16;12.17;;;7.63;;
6424;SDS011;12193;42.642;23.384;2023-05-14T15:57:49;8.60;;;6.37;;
6424;SDS011;12193;42.642;23.384;2023-05-14T16:00:18;11.00;;;8.38;;
6424;SDS011;12193;42.642;23.384;2023-05-14T16:02:49;11.20;;;7.07;;
6424;SDS011;12193;42.642;23.384;2023-05-14T16:05:19;9.07;;;6.70;;
6424;SDS011;12193;42.642;23.384;2023-05-14T16:07:48;11.77;;;6.70;;
6424;SDS011;12193;42.642;23.384;2023-05-14T16:10:18;10.47;;;6.00;;
6424;SDS011;12193;42.642;23.384;2023-05-14T16:12:51;10.33;;;6.67;;
6424;SDS011;12193;42.642;23.384;2023-05-14T16:15:20;9.67;;;6.57;;
6424;SDS011;12193;42.642;23.384;2023-05-14T16:17:49;11.87;;;6.60;;
6424;SDS011;12193;42.642;23.384;2023-05-14T16:20:19;15.47;;;7.37;;
6424;SDS011;12193;42.642;23.384;2023-05-14T16:22:48;8.67;;;6.17;;
6424;SDS011;12193;42.642;23.384;2023-05-14T16:25:17;8.50;;;5.30;;
6424;SDS011;12193;42.642;23.384;2023-05-14T16:27:47;6.30;;;4.70;;
6424;SDS011;12193;42.642;23.384;2023-05-14T16:30:19;7.03;;;5.20;;
6424;SDS011;12193;42.642;23.384;2023-05-14T16:32:48;6.90;;;4.13;;
6424;SDS011;12193;42.642;23.384;2023-05-14T16:35:17;5.90;;;4.60;;
6424;SDS011;12193;42.642;23.384;2023-05-14T16:37:47;5.77;;;4.20;;
6424;SDS011;12193;42.642;23.384;2023-05-14T16:40:16;3.63;;;2.83;;
6424;SDS011;12193;42.642;23.384;2023-05-14T16:42:47;6.50;;;4.10;;
6424;SDS011;12193;42.642;23.384;2023-05-14T16:45:19;5.30;;;3.90;;
6424;SDS011;12193;42.642;23.384;2023-05-14T16:47:49;7.37;;;4.80;;
6424;SDS011;12193;42.642;23.384;2023-05-14T16:50:18;5.23;;;3.80;;
6424;SDS011;12193;42.642;23.384;2023-05-14T16:52:47;4.70;;;3.57;;
6424;SDS011;12193;42.642;23.384;2023-05-14T16:55:17;4.90;;;3.30;;
6424;SDS011;12193;42.642;23.384;2023-05-14T16:57:47;5.67;;;3.70;;
6424;SDS011;12193;42.642;23.384;2023-05-14T17:00:16;6.20;;;3.60;;
6424;SDS011;12193;42.642;23.384;2023-05-14T17:02:48;5.47;;;4.03;;
6424;SDS011;12193;42.642;23.384;2023-05-14T17:05:19;5.73;;;3.40;;
6424;SDS011;12193;42.642;23.384;2023-05-14T17:07:48;6.60;;;4.40;;
6424;SDS011;12193;42.642;23.384;2023-05-14T17:10:17;7.40;;;4.63;;
6424;SDS011;12193;42.642;23.384;2023-05-14T17:12:47;6.13;;;4.73;;
6424;SDS011;12193;42.642;23.384;2023-05-14T17:15:19;6.30;;;5.10;;
6424;SDS011;12193;42.642;23.384;2023-05-14T17:17:48;8.63;;;5.90;;
6424;SDS011;12193;42.642;23.384;2023-05-14T17:20:17;8.20;;;5.23;;
6424;SDS011;12193;42.642;23.384;2023-05-14T17:22:47;7.87;;;5.80;;
6424;SDS011;12193;42.642;23.384;2023-05-14T17:25:16;9.80;;;6.07;;
6424;SDS011;12193;42.642;23.384;2023-05-14T17:27:48;8.50;;;5.90;;
6424;SDS011;12193;42.642;23.384;2023-05-14T17:30:20;18.80;;;12.00;;
6424;SDS011;12193;42.642;23.384;2023-05-14T17:32:49;10.03;;;6.90;;
6424;SDS011;12193;42.642;23.384;2023-05-14T17:35:19;11.13;;;7.53;;
6424;SDS011;12193;42.642;23.384;2023-05-14T17:37:48;9.40;;;6.00;;
6424;SDS011;12193;42.642;23.384;2023-05-14T17:40:17;11.13;;;6.43;;
6424;SDS011;12193;42.642;23.384;2023-05-14T17:42:46;15.40;;;7.93;;
6424;SDS011;12193;42.642;23.384;2023-05-14T17:45:16;10.07;;;7.53;;
6424;SDS011;12193;42.642;23.384;2023-05-14T17:47:48;10.43;;;7.60;;
6424;SDS011;12193;42.642;23.384;2023-05-14T17:50:18;5.20;;;3.93;;
6424;SDS011;12193;42.642;23.384;2023-05-14T17:52:47;10.33;;;6.63;;
6424;SDS011;12193;42.642;23.384;2023-05-14T17:55:16;5.40;;;3.80;;
6424;SDS011;12193;42.642;23.384;2023-05-14T17:57:45;7.63;;;4.40;;
6424;SDS011;12193;42.642;23.384;2023-05-14T18:00:15;4.40;;;3.67;;
6424;SDS011;12193;42.642;23.384;2023-05-14T18:02:44;4.77;;;3.53;;
6424;SDS011;12193;42.642;23.384;2023-05-14T18:05:16;13.67;;;8.43;;